sensor_id;sensor_type;location;lat;lon;timestamp;P1;durP1;ratioP1;P2;durP2;ratioP2
26965;SDS011;14522;52.068;4.414;2023-03-14T00:01:58;9.45;;;1.38;;
26965;SDS011;14522;52.068;4.414;2023-03-14T00:04:24;11.00;;;1.38;;
26965;SDS011;14522;52.068;4.414;2023-03-14T00:06:51;14.02;;;1.90;;
26965;SDS011;14522;52.068;4.414;2023-03-14T00:09:17;11.15;;;1.92;;
26965;SDS011;14522;52.068;4.414;2023-03-14T00:11:44;12.20;;;1.55;;
26965;SDS011;14522;52.068;4.414;2023-03-14T00:14:10;12.88;;;1.55;;
26965;SDS011;14522;52.068;4.414;2023-03-14T00:16:36;9.90;;;1.70;;
26965;SDS011;14522;52.068;4.414;2023-03-14T00:19:03;13.65;;;1.90;;
26965;SDS011;14522;52.068;4.414;2023-03-14T00:21:29;8.23;;;1.50;;
26965;SDS011;14522;52.068;4.414;2023-03-14T00:23:55;10.23;;;1.20;;
26965;SDS011;14522;52.068;4.414;2023-03-14T00:26:22;14.20;;;1.63;;
26965;SDS011;14522;52.068;4.414;2023-03-14T00:28:51;12.27;;;1.83;;
26965;SDS011;14522;52.068;4.414;2023-03-14T00:31:17;12.27;;;1.80;;
26965;SDS011;14522;52.068;4.414;2023-03-14T00:33:44;8.18;;;1.50;;
26965;SDS011;14522;52.068;4.414;2023-03-14T00:36:12;9.90;;;1.73;;
26965;SDS011;14522;52.068;4.414;2023-03-14T00:38:39;12.57;;;1.90;;
26965;SDS011;14522;52.068;4.414;2023-03-14T00:41:10;13.50;;;2.25;;
26965;SDS011;14522;52.068;4.414;2023-03-14T00:43:37;18.63;;;2.42;;
26965;SDS011;14522;52.068;4.414;2023-03-14T00:46:04;16.50;;;2.83;;
26965;SDS011;14522;52.068;4.414;2023-03-14T00:48:31;18.65;;;2.60;;
26965;SDS011;14522;52.068;4.414;2023-03-14T00:50:57;12.65;;;2.20;;
26965;SDS011;14522;52.068;4.414;2023-03-14T00:53:24;17.23;;;2.83;;
26965;SDS011;14522;52.068;4.414;2023-03-14T00:55:50;15.00;;;2.80;;
26965;SDS011;14522;52.068;4.414;2023-03-14T00:58:17;19.48;;;2.83;;
26965;SDS011;14522;52.068;4.414;2023-03-14T01:00:44;19.80;;;2.60;;
26965;SDS011;14522;52.068;4.414;2023-03-14T01:03:11;14.07;;;3.25;;
26965;SDS011;14522;52.068;4.414;2023-03-14T01:05:37;16.05;;;2.53;;
26965;SDS011;14522;52.068;4.414;2023-03-14T01:08:04;19.25;;;2.50;;
26965;SDS011;14522;52.068;4.414;2023-03-14T01:10:31;16.25;;;2.25;;
26965;SDS011;14522;52.068;4.414;2023-03-14T01:12:57;9.88;;;2.15;;
26965;SDS011;14522;52.068;4.414;2023-03-14T01:15:24;17.90;;;2.40;;
26965;SDS011;14522;52.068;4.414;2023-03-14T01:17:50;15.60;;;2.22;;
26965;SDS011;14522;52.068;4.414;2023-03-14T01:20:17;18.42;;;1.98;;
26965;SDS011;14522;52.068;4.414;2023-03-14T01:22:43;11.13;;;2.33;;
26965;SDS011;14522;52.068;4.414;2023-03-14T01:25:12;17.42;;;2.50;;
26965;SDS011;14522;52.068;4.414;2023-03-14T01:27:38;16.60;;;2.20;;
26965;SDS011;14522;52.068;4.414;2023-03-14T01:30:05;17.05;;;2.20;;
26965;SDS011;14522;52.068;4.414;2023-03-14T01:32:32;18.55;;;2.42;;
26965;SDS011;14522;52.068;4.414;2023-03-14T01:34:58;15.52;;;2.22;;
26965;SDS011;14522;52.068;4.414;2023-03-14T01:37:24;10.20;;;2.17;;
26965;SDS011;14522;52.068;4.414;2023-03-14T01:39:51;11.20;;;2.22;;
26965;SDS011;14522;52.068;4.414;2023-03-14T01:42:17;12.15;;;1.77;;
26965;SDS011;14522;52.068;4.414;2023-03-14T01:44:54;12.30;;;2.33;;
26965;SDS011;14522;52.068;4.414;2023-03-14T01:47:21;12.45;;;2.08;;
26965;SDS011;14522;52.068;4.414;2023-03-14T01:49:49;12.23;;;1.88;;
26965;SDS011;14522;52.068;4.414;2023-03-14T01:52:17;18.27;;;2.33;;
26965;SDS011;14522;52.068;4.414;2023-03-14T01:54:46;16.02;;;1.85;;
26965;SDS011;14522;52.068;4.414;2023-03-14T01:57:16;11.15;;;1.58;;
26965;SDS011;14522;52.068;4.414;2023-03-14T01:59:46;16.83;;;2.10;;
26965;SDS011;14522;52.068;4.414;2023-03-14T02:02:12;10.45;;;1.67;;
26965;SDS011;14522;52.068;4.414;2023-03-14T02:04:40;18.65;;;2.50;;
26965;SDS011;14522;52.068;4.414;2023-03-14T02:07:15;10.50;;;1.95;;
26965;SDS011;14522;52.068;4.414;2023-03-14T02:09:43;16.00;;;1.95;;
26965;SDS011;14522;52.068;4.414;2023-03-14T02:12:10;10.15;;;1.70;;
26965;SDS011;14522;52.068;4.414;2023-03-14T02:14:37;11.30;;;1.77;;
26965;SDS011;14522;52.068;4.414;2023-03-14T02:17:04;10.85;;;1.70;;
26965;SDS011;14522;52.068;4.414;2023-03-14T02:19:35;8.98;;;1.50;;
26965;SDS011;14522;52.068;4.414;2023-03-14T02:27:21;10.40;;;2.00;;
26965;SDS011;14522;52.068;4.414;2023-03-14T02:29:49;8.93;;;1.45;;
26965;SDS011;14522;52.068;4.414;2023-03-14T02:32:17;11.45;;;2.28;;
26965;SDS011;14522;52.068;4.414;2023-03-14T02:34:44;9.57;;;1.67;;
26965;SDS011;14522;52.068;4.414;2023-03-14T02:37:12;11.90;;;2.10;;
26965;SDS011;14522;52.068;4.414;2023-03-14T02:39:41;11.20;;;2.05;;
26965;SDS011;14522;52.068;4.414;2023-03-14T02:42:08;10.88;;;1.20;;
26965;SDS011;14522;52.068;4.414;2023-03-14T02:44:35;9.52;;;1.60;;
26965;SDS011;14522;52.068;4.414;2023-03-14T02:47:02;9.00;;;1.70;;
26965;SDS011;14522;52.068;4.414;2023-03-14T02:49:29;12.52;;;1.40;;
26965;SDS011;14522;52.068;4.414;2023-03-14T02:51:56;14.15;;;1.42;;
26965;SDS011;14522;52.068;4.414;2023-03-14T02:54:22;9.27;;;1.92;;
26965;SDS011;14522;52.068;4.414;2023-03-14T02:56:49;14.35;;;2.10;;
26965;SDS011;14522;52.068;4.414;2023-03-14T02:59:15;14.20;;;2.42;;
26965;SDS011;14522;52.068;4.414;2023-03-14T03:01:41;7.40;;;1.45;;
26965;SDS011;14522;52.068;4.414;2023-03-14T03:04:08;12.65;;;1.75;;
26965;SDS011;14522;52.068;4.414;2023-03-14T03:06:34;8.45;;;2.03;;
26965;SDS011;14522;52.068;4.414;2023-03-14T03:09:01;6.68;;;1.10;;
26965;SDS011;14522;52.068;4.414;2023-03-14T03:11:27;11.32;;;1.80;;
26965;SDS011;14522;52.068;4.414;2023-03-14T03:13:53;8.05;;;1.52;;
26965;SDS011;14522;52.068;4.414;2023-03-14T03:16:20;7.00;;;1.65;;
26965;SDS011;14522;52.068;4.414;2023-03-14T03:18:46;11.75;;;2.13;;
26965;SDS011;14522;52.068;4.414;2023-03-14T03:21:13;12.85;;;1.60;;
26965;SDS011;14522;52.068;4.414;2023-03-14T03:23:39;6.45;;;1.60;;
26965;SDS011;14522;52.068;4.414;2023-03-14T03:26:05;10.95;;;1.95;;
26965;SDS011;14522;52.068;4.414;2023-03-14T03:28:32;11.27;;;1.65;;
26965;SDS011;14522;52.068;4.414;2023-03-14T03:30:58;9.25;;;2.20;;
26965;SDS011;14522;52.068;4.414;2023-03-14T03:33:24;10.32;;;1.67;;
26965;SDS011;14522;52.068;4.414;2023-03-14T03:35:51;5.55;;;1.52;;
26965;SDS011;14522;52.068;4.414;2023-03-14T03:38:18;14.13;;;2.25;;
26965;SDS011;14522;52.068;4.414;2023-03-14T03:40:46;12.63;;;1.60;;
26965;SDS011;14522;52.068;4.414;2023-03-14T03:43:12;15.88;;;2.33;;
26965;SDS011;14522;52.068;4.414;2023-03-14T03:45:39;17.92;;;2.53;;
26965;SDS011;14522;52.068;4.414;2023-03-14T03:48:05;10.38;;;1.85;;
26965;SDS011;14522;52.068;4.414;2023-03-14T03:50:31;11.85;;;1.80;;
26965;SDS011;14522;52.068;4.414;2023-03-14T03:52:58;9.32;;;2.28;;
26965;SDS011;14522;52.068;4.414;2023-03-14T03:55:24;9.60;;;1.65;;
26965;SDS011;14522;52.068;4.414;2023-03-14T03:57:51;14.82;;;2.10;;
26965;SDS011;14522;52.068;4.414;2023-03-14T04:00:18;9.32;;;1.67;;
26965;SDS011;14522;52.068;4.414;2023-03-14T04:02:45;7.93;;;1.98;;
26965;SDS011;14522;52.068;4.414;2023-03-14T04:05:11;13.02;;;1.88;;
26965;SDS011;14522;52.068;4.414;2023-03-14T04:07:37;8.40;;;1.75;;
26965;SDS011;14522;52.068;4.414;2023-03-14T04:10:04;13.68;;;2.17;;
26965;SDS011;14522;52.068;4.414;2023-03-14T04:12:30;6.70;;;1.30;;
26965;SDS011;14522;52.068;4.414;2023-03-14T04:14:57;13.15;;;1.67;;
26965;SDS011;14522;52.068;4.414;2023-03-14T04:17:23;9.98;;;1.63;;
26965;SDS011;14522;52.068;4.414;2023-03-14T04:19:50;8.98;;;1.88;;
26965;SDS011;14522;52.068;4.414;2023-03-14T04:22:17;7.03;;;1.30;;
26965;SDS011;14522;52.068;4.414;2023-03-14T04:24:44;8.65;;;2.00;;
26965;SDS011;14522;52.068;4.414;2023-03-14T04:27:10;10.98;;;1.95;;
26965;SDS011;14522;52.068;4.414;2023-03-14T04:29:36;5.55;;;1.23;;
26965;SDS011;14522;52.068;4.414;2023-03-14T04:32:03;8.93;;;1.60;;
26965;SDS011;14522;52.068;4.414;2023-03-14T04:34:29;9.52;;;1.70;;
26965;SDS011;14522;52.068;4.414;2023-03-14T04:36:56;10.63;;;1.80;;
26965;SDS011;14522;52.068;4.414;2023-03-14T04:39:22;13.73;;;2.05;;
26965;SDS011;14522;52.068;4.414;2023-03-14T04:41:48;9.95;;;1.70;;
26965;SDS011;14522;52.068;4.414;2023-03-14T04:44:15;6.68;;;1.63;;
26965;SDS011;14522;52.068;4.414;2023-03-14T04:46:41;7.97;;;1.55;;
26965;SDS011;14522;52.068;4.414;2023-03-14T04:49:07;8.85;;;1.63;;
26965;SDS011;14522;52.068;4.414;2023-03-14T04:51:34;5.47;;;1.25;;
26965;SDS011;14522;52.068;4.414;2023-03-14T04:54:00;8.82;;;1.33;;
26965;SDS011;14522;52.068;4.414;2023-03-14T04:56:26;7.95;;;2.20;;
26965;SDS011;14522;52.068;4.414;2023-03-14T04:58:53;9.50;;;1.58;;
26965;SDS011;14522;52.068;4.414;2023-03-14T05:01:20;7.18;;;1.63;;
26965;SDS011;14522;52.068;4.414;2023-03-14T05:03:46;6.68;;;1.33;;
26965;SDS011;14522;52.068;4.414;2023-03-14T05:06:13;6.50;;;1.42;;
26965;SDS011;14522;52.068;4.414;2023-03-14T05:08:39;6.07;;;1.30;;
26965;SDS011;14522;52.068;4.414;2023-03-14T05:11:05;5.40;;;1.35;;
26965;SDS011;14522;52.068;4.414;2023-03-14T05:13:32;9.55;;;1.60;;
26965;SDS011;14522;52.068;4.414;2023-03-14T05:16:05;4.22;;;1.17;;
26965;SDS011;14522;52.068;4.414;2023-03-14T05:18:32;3.95;;;1.08;;
26965;SDS011;14522;52.068;4.414;2023-03-14T05:20:59;6.28;;;1.05;;
26965;SDS011;14522;52.068;4.414;2023-03-14T05:23:25;8.65;;;1.38;;
26965;SDS011;14522;52.068;4.414;2023-03-14T05:25:52;8.25;;;1.10;;
26965;SDS011;14522;52.068;4.414;2023-03-14T05:28:18;4.95;;;0.98;;
26965;SDS011;14522;52.068;4.414;2023-03-14T05:30:45;8.45;;;1.25;;
26965;SDS011;14522;52.068;4.414;2023-03-14T05:33:11;4.95;;;0.82;;
26965;SDS011;14522;52.068;4.414;2023-03-14T05:35:37;7.10;;;0.90;;
26965;SDS011;14522;52.068;4.414;2023-03-14T05:38:04;8.02;;;1.10;;
26965;SDS011;14522;52.068;4.414;2023-03-14T05:40:30;6.13;;;1.05;;
26965;SDS011;14522;52.068;4.414;2023-03-14T05:42:57;6.90;;;0.80;;
26965;SDS011;14522;52.068;4.414;2023-03-14T05:45:23;5.95;;;1.73;;
26965;SDS011;14522;52.068;4.414;2023-03-14T05:47:49;6.05;;;0.90;;
26965;SDS011;14522;52.068;4.414;2023-03-14T05:50:16;6.78;;;1.30;;
26965;SDS011;14522;52.068;4.414;2023-03-14T05:52:42;4.68;;;1.08;;
26965;SDS011;14522;52.068;4.414;2023-03-14T05:55:08;6.20;;;0.73;;
26965;SDS011;14522;52.068;4.414;2023-03-14T05:57:35;5.75;;;0.68;;
26965;SDS011;14522;52.068;4.414;2023-03-14T06:00:01;5.20;;;0.75;;
26965;SDS011;14522;52.068;4.414;2023-03-14T06:02:28;5.72;;;0.68;;
26965;SDS011;14522;52.068;4.414;2023-03-14T06:04:54;4.72;;;0.82;;
26965;SDS011;14522;52.068;4.414;2023-03-14T06:07:21;5.95;;;0.70;;
26965;SDS011;14522;52.068;4.414;2023-03-14T06:09:47;4.45;;;0.73;;
26965;SDS011;14522;52.068;4.414;2023-03-14T06:12:13;3.70;;;0.70;;
26965;SDS011;14522;52.068;4.414;2023-03-14T06:14:40;5.57;;;0.95;;
26965;SDS011;14522;52.068;4.414;2023-03-14T06:17:06;5.85;;;0.63;;
26965;SDS011;14522;52.068;4.414;2023-03-14T06:19:32;3.40;;;0.50;;
26965;SDS011;14522;52.068;4.414;2023-03-14T06:21:59;7.13;;;0.50;;
26965;SDS011;14522;52.068;4.414;2023-03-14T06:24:25;3.95;;;0.63;;
26965;SDS011;14522;52.068;4.414;2023-03-14T06:26:51;3.28;;;0.45;;
26965;SDS011;14522;52.068;4.414;2023-03-14T06:29:18;3.33;;;0.65;;
26965;SDS011;14522;52.068;4.414;2023-03-14T06:31:44;4.95;;;0.88;;
26965;SDS011;14522;52.068;4.414;2023-03-14T06:34:11;5.65;;;0.85;;
26965;SDS011;14522;52.068;4.414;2023-03-14T06:36:37;3.17;;;0.50;;
26965;SDS011;14522;52.068;4.414;2023-03-14T06:39:03;4.60;;;0.65;;
26965;SDS011;14522;52.068;4.414;2023-03-14T06:41:30;3.00;;;0.65;;
26965;SDS011;14522;52.068;4.414;2023-03-14T06:43:56;5.03;;;0.73;;
26965;SDS011;14522;52.068;4.414;2023-03-14T06:46:22;3.97;;;0.60;;
26965;SDS011;14522;52.068;4.414;2023-03-14T06:48:49;3.90;;;0.60;;
26965;SDS011;14522;52.068;4.414;2023-03-14T06:51:15;6.65;;;1.15;;
26965;SDS011;14522;52.068;4.414;2023-03-14T06:53:42;5.82;;;0.40;;
26965;SDS011;14522;52.068;4.414;2023-03-14T06:56:08;5.18;;;0.93;;
26965;SDS011;14522;52.068;4.414;2023-03-14T06:58:34;6.55;;;0.68;;
26965;SDS011;14522;52.068;4.414;2023-03-14T07:01:01;5.60;;;0.82;;
26965;SDS011;14522;52.068;4.414;2023-03-14T07:03:28;7.07;;;0.88;;
26965;SDS011;14522;52.068;4.414;2023-03-14T07:05:54;2.53;;;0.52;;
26965;SDS011;14522;52.068;4.414;2023-03-14T07:08:20;15.30;;;1.10;;
26965;SDS011;14522;52.068;4.414;2023-03-14T07:10:47;7.03;;;0.60;;
26965;SDS011;14522;52.068;4.414;2023-03-14T07:13:13;4.63;;;0.55;;
26965;SDS011;14522;52.068;4.414;2023-03-14T07:15:39;5.65;;;0.90;;
26965;SDS011;14522;52.068;4.414;2023-03-14T07:18:06;5.07;;;0.75;;
26965;SDS011;14522;52.068;4.414;2023-03-14T07:20:32;3.42;;;0.65;;
26965;SDS011;14522;52.068;4.414;2023-03-14T07:22:59;5.28;;;0.80;;
26965;SDS011;14522;52.068;4.414;2023-03-14T07:25:26;5.63;;;0.80;;
26965;SDS011;14522;52.068;4.414;2023-03-14T07:27:52;6.60;;;0.90;;
26965;SDS011;14522;52.068;4.414;2023-03-14T07:30:19;4.22;;;0.60;;
26965;SDS011;14522;52.068;4.414;2023-03-14T07:32:45;6.80;;;0.77;;
26965;SDS011;14522;52.068;4.414;2023-03-14T07:35:12;6.38;;;0.65;;
26965;SDS011;14522;52.068;4.414;2023-03-14T07:37:38;5.03;;;0.95;;
26965;SDS011;14522;52.068;4.414;2023-03-14T07:40:05;4.53;;;0.60;;
26965;SDS011;14522;52.068;4.414;2023-03-14T07:42:33;7.43;;;1.00;;
26965;SDS011;14522;52.068;4.414;2023-03-14T07:44:59;7.32;;;1.20;;
26965;SDS011;14522;52.068;4.414;2023-03-14T07:47:26;6.93;;;0.88;;
26965;SDS011;14522;52.068;4.414;2023-03-14T07:49:52;7.43;;;1.33;;
26965;SDS011;14522;52.068;4.414;2023-03-14T07:52:18;8.65;;;1.58;;
26965;SDS011;14522;52.068;4.414;2023-03-14T07:54:45;5.53;;;1.60;;
26965;SDS011;14522;52.068;4.414;2023-03-14T07:57:11;8.55;;;0.82;;
26965;SDS011;14522;52.068;4.414;2023-03-14T07:59:37;6.15;;;0.70;;
26965;SDS011;14522;52.068;4.414;2023-03-14T08:02:04;7.65;;;1.05;;
26965;SDS011;14522;52.068;4.414;2023-03-14T08:04:35;6.18;;;1.13;;
26965;SDS011;14522;52.068;4.414;2023-03-14T08:07:02;7.63;;;1.17;;
26965;SDS011;14522;52.068;4.414;2023-03-14T08:09:29;5.30;;;0.90;;
26965;SDS011;14522;52.068;4.414;2023-03-14T08:11:55;6.70;;;1.00;;
26965;SDS011;14522;52.068;4.414;2023-03-14T08:14:23;8.40;;;0.82;;
26965;SDS011;14522;52.068;4.414;2023-03-14T08:16:50;7.05;;;0.70;;
26965;SDS011;14522;52.068;4.414;2023-03-14T08:19:16;5.55;;;0.85;;
26965;SDS011;14522;52.068;4.414;2023-03-14T08:21:43;5.65;;;0.75;;
26965;SDS011;14522;52.068;4.414;2023-03-14T08:24:09;5.53;;;0.93;;
26965;SDS011;14522;52.068;4.414;2023-03-14T08:26:36;8.50;;;0.95;;
26965;SDS011;14522;52.068;4.414;2023-03-14T08:29:03;8.07;;;0.75;;
26965;SDS011;14522;52.068;4.414;2023-03-14T08:31:30;3.22;;;0.55;;
26965;SDS011;14522;52.068;4.414;2023-03-14T08:33:59;5.32;;;1.00;;
26965;SDS011;14522;52.068;4.414;2023-03-14T08:36:26;3.00;;;0.70;;
26965;SDS011;14522;52.068;4.414;2023-03-14T08:38:52;6.50;;;0.80;;
26965;SDS011;14522;52.068;4.414;2023-03-14T08:41:19;8.75;;;0.77;;
26965;SDS011;14522;52.068;4.414;2023-03-14T08:43:45;6.75;;;0.82;;
26965;SDS011;14522;52.068;4.414;2023-03-14T08:46:12;8.48;;;1.23;;
26965;SDS011;14522;52.068;4.414;2023-03-14T08:48:38;4.72;;;1.10;;
26965;SDS011;14522;52.068;4.414;2023-03-14T08:51:05;6.82;;;1.35;;
26965;SDS011;14522;52.068;4.414;2023-03-14T08:53:32;12.13;;;1.42;;
26965;SDS011;14522;52.068;4.414;2023-03-14T08:55:58;7.47;;;0.77;;
26965;SDS011;14522;52.068;4.414;2023-03-14T08:58:25;16.50;;;1.58;;
26965;SDS011;14522;52.068;4.414;2023-03-14T09:00:51;12.70;;;2.00;;
26965;SDS011;14522;52.068;4.414;2023-03-14T09:03:18;11.75;;;1.67;;
26965;SDS011;14522;52.068;4.414;2023-03-14T09:05:44;10.57;;;1.40;;
26965;SDS011;14522;52.068;4.414;2023-03-14T09:08:11;12.18;;;1.73;;
26965;SDS011;14522;52.068;4.414;2023-03-14T09:10:37;13.52;;;1.80;;
26965;SDS011;14522;52.068;4.414;2023-03-14T09:13:04;8.30;;;1.67;;
26965;SDS011;14522;52.068;4.414;2023-03-14T09:15:31;8.98;;;1.27;;
26965;SDS011;14522;52.068;4.414;2023-03-14T09:17:58;11.80;;;1.67;;
26965;SDS011;14522;52.068;4.414;2023-03-14T09:20:24;23.17;;;2.17;;
26965;SDS011;14522;52.068;4.414;2023-03-14T09:22:50;17.42;;;2.75;;
26965;SDS011;14522;52.068;4.414;2023-03-14T09:25:17;14.02;;;1.80;;
26965;SDS011;14522;52.068;4.414;2023-03-14T09:27:43;11.20;;;2.00;;
26965;SDS011;14522;52.068;4.414;2023-03-14T09:30:10;10.82;;;2.05;;
26965;SDS011;14522;52.068;4.414;2023-03-14T09:32:36;11.27;;;1.73;;
26965;SDS011;14522;52.068;4.414;2023-03-14T09:35:03;7.15;;;1.52;;
26965;SDS011;14522;52.068;4.414;2023-03-14T09:37:29;9.07;;;1.58;;
26965;SDS011;14522;52.068;4.414;2023-03-14T09:39:56;12.00;;;1.63;;
26965;SDS011;14522;52.068;4.414;2023-03-14T09:42:23;10.80;;;1.45;;
26965;SDS011;14522;52.068;4.414;2023-03-14T09:44:56;9.10;;;2.08;;
26965;SDS011;14522;52.068;4.414;2023-03-14T09:47:23;13.52;;;2.03;;
26965;SDS011;14522;52.068;4.414;2023-03-14T09:49:51;11.35;;;2.00;;
26965;SDS011;14522;52.068;4.414;2023-03-14T09:52:25;12.38;;;2.00;;
26965;SDS011;14522;52.068;4.414;2023-03-14T09:57:26;15.45;;;2.10;;
26965;SDS011;14522;52.068;4.414;2023-03-14T09:59:56;14.45;;;2.10;;
26965;SDS011;14522;52.068;4.414;2023-03-14T10:02:34;18.48;;;2.65;;
26965;SDS011;14522;52.068;4.414;2023-03-14T10:05:01;16.05;;;2.97;;
26965;SDS011;14522;52.068;4.414;2023-03-14T10:07:32;17.13;;;2.20;;
26965;SDS011;14522;52.068;4.414;2023-03-14T10:10:00;16.05;;;2.88;;
26965;SDS011;14522;52.068;4.414;2023-03-14T10:12:33;12.70;;;2.40;;
26965;SDS011;14522;52.068;4.414;2023-03-14T10:15:04;13.73;;;2.40;;
26965;SDS011;14522;52.068;4.414;2023-03-14T10:17:37;18.00;;;2.42;;
26965;SDS011;14522;52.068;4.414;2023-03-14T10:20:03;25.42;;;3.97;;
26965;SDS011;14522;52.068;4.414;2023-03-14T10:22:30;17.95;;;2.05;;
26965;SDS011;14522;52.068;4.414;2023-03-14T10:25:00;11.77;;;2.67;;
26965;SDS011;14522;52.068;4.414;2023-03-14T10:27:28;18.63;;;2.55;;
26965;SDS011;14522;52.068;4.414;2023-03-14T10:29:57;15.50;;;3.33;;
26965;SDS011;14522;52.068;4.414;2023-03-14T10:32:43;16.88;;;3.55;;
26965;SDS011;14522;52.068;4.414;2023-03-14T10:37:51;23.10;;;3.20;;
26965;SDS011;14522;52.068;4.414;2023-03-14T10:40:19;18.10;;;2.13;;
26965;SDS011;14522;52.068;4.414;2023-03-14T10:42:45;20.73;;;2.25;;
26965;SDS011;14522;52.068;4.414;2023-03-14T10:47:52;15.23;;;2.40;;
26965;SDS011;14522;52.068;4.414;2023-03-14T10:50:28;20.55;;;2.47;;
26965;SDS011;14522;52.068;4.414;2023-03-14T10:52:55;11.80;;;2.20;;
26965;SDS011;14522;52.068;4.414;2023-03-14T10:55:28;15.32;;;2.22;;
26965;SDS011;14522;52.068;4.414;2023-03-14T10:58:05;12.43;;;1.73;;
26965;SDS011;14522;52.068;4.414;2023-03-14T11:00:31;14.20;;;2.50;;
26965;SDS011;14522;52.068;4.414;2023-03-14T11:05:46;17.45;;;2.05;;
26965;SDS011;14522;52.068;4.414;2023-03-14T11:10:45;12.70;;;1.88;;
26965;SDS011;14522;52.068;4.414;2023-03-14T11:15:57;15.40;;;2.03;;
26965;SDS011;14522;52.068;4.414;2023-03-14T11:28:58;12.90;;;1.30;;
26965;SDS011;14522;52.068;4.414;2023-03-14T11:31:29;12.65;;;2.75;;
26965;SDS011;14522;52.068;4.414;2023-03-14T11:34:11;16.25;;;1.70;;
26965;SDS011;14522;52.068;4.414;2023-03-14T11:36:39;12.43;;;1.88;;
26965;SDS011;14522;52.068;4.414;2023-03-14T11:39:08;9.95;;;2.10;;
26965;SDS011;14522;52.068;4.414;2023-03-14T11:41:39;11.25;;;1.95;;
26965;SDS011;14522;52.068;4.414;2023-03-14T11:44:25;12.13;;;3.00;;
26965;SDS011;14522;52.068;4.414;2023-03-14T11:47:00;12.75;;;1.67;;
26965;SDS011;14522;52.068;4.414;2023-03-14T11:49:43;12.93;;;2.53;;
26965;SDS011;14522;52.068;4.414;2023-03-14T11:52:17;12.00;;;2.22;;
26965;SDS011;14522;52.068;4.414;2023-03-14T11:57:17;9.63;;;1.45;;
26965;SDS011;14522;52.068;4.414;2023-03-14T12:02:40;11.13;;;2.08;;
26965;SDS011;14522;52.068;4.414;2023-03-14T12:10:44;11.02;;;1.85;;
26965;SDS011;14522;52.068;4.414;2023-03-14T12:13:12;16.92;;;1.60;;
26965;SDS011;14522;52.068;4.414;2023-03-14T12:15:40;6.90;;;1.20;;
26965;SDS011;14522;52.068;4.414;2023-03-14T12:18:41;13.15;;;1.98;;
26965;SDS011;14522;52.068;4.414;2023-03-14T12:21:01;13.68;;;1.77;;
26965;SDS011;14522;52.068;4.414;2023-03-14T12:23:34;14.13;;;1.52;;
26965;SDS011;14522;52.068;4.414;2023-03-14T12:29:23;9.52;;;1.85;;
26965;SDS011;14522;52.068;4.414;2023-03-14T12:34:01;12.05;;;2.00;;
26965;SDS011;14522;52.068;4.414;2023-03-14T12:41:44;4.97;;;1.13;;
26965;SDS011;14522;52.068;4.414;2023-03-14T12:46:58;7.95;;;1.08;;
26965;SDS011;14522;52.068;4.414;2023-03-14T12:49:31;9.50;;;1.85;;
26965;SDS011;14522;52.068;4.414;2023-03-14T12:51:58;9.27;;;1.45;;
26965;SDS011;14522;52.068;4.414;2023-03-14T12:54:27;9.00;;;1.13;;
26965;SDS011;14522;52.068;4.414;2023-03-14T12:57:03;9.27;;;1.30;;
26965;SDS011;14522;52.068;4.414;2023-03-14T13:04:33;5.35;;;1.02;;
26965;SDS011;14522;52.068;4.414;2023-03-14T13:07:10;10.70;;;0.95;;
26965;SDS011;14522;52.068;4.414;2023-03-14T13:09:49;8.70;;;1.27;;
26965;SDS011;14522;52.068;4.414;2023-03-14T13:12:17;5.32;;;1.13;;
26965;SDS011;14522;52.068;4.414;2023-03-14T13:14:45;14.10;;;1.52;;
26965;SDS011;14522;52.068;4.414;2023-03-14T13:17:12;6.15;;;0.77;;
26965;SDS011;14522;52.068;4.414;2023-03-14T13:20:00;8.15;;;1.33;;
26965;SDS011;14522;52.068;4.414;2023-03-14T13:22:29;8.35;;;1.17;;
26965;SDS011;14522;52.068;4.414;2023-03-14T13:25:00;10.18;;;1.55;;
26965;SDS011;14522;52.068;4.414;2023-03-14T13:27:26;8.50;;;1.33;;
26965;SDS011;14522;52.068;4.414;2023-03-14T13:29:53;5.40;;;1.00;;
26965;SDS011;14522;52.068;4.414;2023-03-14T13:32:21;11.95;;;1.30;;
26965;SDS011;14522;52.068;4.414;2023-03-14T13:34:48;6.95;;;1.30;;
26965;SDS011;14522;52.068;4.414;2023-03-14T13:37:15;5.00;;;1.30;;
26965;SDS011;14522;52.068;4.414;2023-03-14T13:39:42;6.63;;;1.17;;
26965;SDS011;14522;52.068;4.414;2023-03-14T13:42:11;8.70;;;1.50;;
26965;SDS011;14522;52.068;4.414;2023-03-14T13:44:40;9.77;;;1.27;;
26965;SDS011;14522;52.068;4.414;2023-03-14T13:47:11;12.02;;;1.17;;
26965;SDS011;14522;52.068;4.414;2023-03-14T13:49:39;7.63;;;1.30;;
26965;SDS011;14522;52.068;4.414;2023-03-14T13:52:21;7.05;;;1.02;;
26965;SDS011;14522;52.068;4.414;2023-03-14T13:54:48;13.48;;;1.70;;
26965;SDS011;14522;52.068;4.414;2023-03-14T13:57:19;10.20;;;1.40;;
26965;SDS011;14522;52.068;4.414;2023-03-14T13:59:57;13.85;;;1.92;;
26965;SDS011;14522;52.068;4.414;2023-03-14T14:02:24;6.60;;;0.68;;
26965;SDS011;14522;52.068;4.414;2023-03-14T14:04:51;7.97;;;1.00;;
26965;SDS011;14522;52.068;4.414;2023-03-14T14:07:18;10.10;;;2.08;;
26965;SDS011;14522;52.068;4.414;2023-03-14T14:09:49;6.38;;;1.25;;
26965;SDS011;14522;52.068;4.414;2023-03-14T14:14:45;7.82;;;1.65;;
26965;SDS011;14522;52.068;4.414;2023-03-14T14:17:14;6.25;;;0.90;;
26965;SDS011;14522;52.068;4.414;2023-03-14T14:19:42;7.32;;;1.75;;
26965;SDS011;14522;52.068;4.414;2023-03-14T14:22:10;14.23;;;1.65;;
26965;SDS011;14522;52.068;4.414;2023-03-14T14:24:36;10.18;;;1.83;;
26965;SDS011;14522;52.068;4.414;2023-03-14T14:27:16;9.95;;;1.48;;
26965;SDS011;14522;52.068;4.414;2023-03-14T14:29:43;9.13;;;1.10;;
26965;SDS011;14522;52.068;4.414;2023-03-14T14:32:12;5.13;;;1.10;;
26965;SDS011;14522;52.068;4.414;2023-03-14T14:37:29;10.40;;;1.52;;
26965;SDS011;14522;52.068;4.414;2023-03-14T14:39:56;6.85;;;0.95;;
26965;SDS011;14522;52.068;4.414;2023-03-14T14:42:30;4.90;;;0.90;;
26965;SDS011;14522;52.068;4.414;2023-03-14T14:44:57;7.30;;;0.95;;
26965;SDS011;14522;52.068;4.414;2023-03-14T14:47:25;12.02;;;1.70;;
26965;SDS011;14522;52.068;4.414;2023-03-14T14:49:53;10.80;;;1.40;;
26965;SDS011;14522;52.068;4.414;2023-03-14T14:52:21;8.85;;;0.82;;
26965;SDS011;14522;52.068;4.414;2023-03-14T14:54:51;6.63;;;1.00;;
26965;SDS011;14522;52.068;4.414;2023-03-14T14:57:22;12.73;;;1.27;;
26965;SDS011;14522;52.068;4.414;2023-03-14T14:59:50;8.18;;;1.33;;
26965;SDS011;14522;52.068;4.414;2023-03-14T15:02:29;9.57;;;1.35;;
26965;SDS011;14522;52.068;4.414;2023-03-14T15:04:56;5.07;;;0.85;;
26965;SDS011;14522;52.068;4.414;2023-03-14T15:07:22;9.93;;;1.15;;
26965;SDS011;14522;52.068;4.414;2023-03-14T15:09:50;7.03;;;1.00;;
26965;SDS011;14522;52.068;4.414;2023-03-14T15:12:17;8.48;;;0.90;;
26965;SDS011;14522;52.068;4.414;2023-03-14T15:14:43;7.38;;;0.95;;
26965;SDS011;14522;52.068;4.414;2023-03-14T15:17:10;9.38;;;1.13;;
26965;SDS011;14522;52.068;4.414;2023-03-14T15:19:37;14.10;;;1.70;;
26965;SDS011;14522;52.068;4.414;2023-03-14T15:22:04;4.57;;;1.10;;
26965;SDS011;14522;52.068;4.414;2023-03-14T15:24:32;9.27;;;0.70;;
26965;SDS011;14522;52.068;4.414;2023-03-14T15:27:03;4.45;;;0.88;;
26965;SDS011;14522;52.068;4.414;2023-03-14T15:29:29;11.60;;;1.27;;
26965;SDS011;14522;52.068;4.414;2023-03-14T15:31:56;9.07;;;1.05;;
26965;SDS011;14522;52.068;4.414;2023-03-14T15:34:22;4.72;;;0.80;;
26965;SDS011;14522;52.068;4.414;2023-03-14T15:36:49;5.40;;;1.20;;
26965;SDS011;14522;52.068;4.414;2023-03-14T15:39:17;9.38;;;0.90;;
26965;SDS011;14522;52.068;4.414;2023-03-14T15:41:43;6.95;;;1.27;;
26965;SDS011;14522;52.068;4.414;2023-03-14T15:44:10;6.80;;;0.68;;
26965;SDS011;14522;52.068;4.414;2023-03-14T15:46:36;4.55;;;0.93;;
26965;SDS011;14522;52.068;4.414;2023-03-14T15:49:02;4.13;;;0.70;;
26965;SDS011;14522;52.068;4.414;2023-03-14T15:51:29;4.07;;;0.80;;